createdAt,value
2022-12-03T00:01:06.808Z,30.10
2022-12-03T00:03:36.987Z,29.90
2022-12-03T00:06:05.860Z,29.20
2022-12-03T00:08:35.541Z,29.40
2022-12-03T00:11:04.334Z,27.00
2022-12-03T00:13:32.819Z,26.20
2022-12-03T00:16:02.097Z,27.20
2022-12-03T00:18:31.453Z,32.90
2022-12-03T00:21:00.094Z,31.00
2022-12-03T00:23:28.851Z,28.20
2022-12-03T00:25:57.933Z,25.50
2022-12-03T00:28:26.593Z,25.80
2022-12-03T00:30:56.215Z,28.70
2022-12-03T00:33:26.137Z,26.90
2022-12-03T00:35:54.697Z,31.20
2022-12-03T00:38:23.857Z,30.40
2022-12-03T00:40:54.198Z,20.10
2022-12-03T00:45:51.672Z,28.00
2022-12-03T00:48:20.535Z,28.00
2022-12-03T00:50:49.099Z,26.80
2022-12-03T00:53:17.973Z,26.10
2022-12-03T00:55:47.352Z,27.70
2022-12-03T00:58:15.956Z,21.80
2022-12-03T01:00:45.040Z,27.40
2022-12-03T01:03:14.167Z,27.20
2022-12-03T01:05:42.865Z,28.80
2022-12-03T01:08:12.135Z,28.00
2022-12-03T01:10:42.142Z,28.80
2022-12-03T01:13:10.886Z,29.40
2022-12-03T01:15:39.790Z,27.80
2022-12-03T01:18:09.831Z,26.50
2022-12-03T01:20:39.043Z,26.30
2022-12-03T01:23:08.388Z,26.60
2022-12-03T01:25:37.490Z,29.60
2022-12-03T01:28:05.975Z,29.10
2022-12-03T01:30:55.189Z,28.80
2022-12-03T01:33:24.124Z,28.10
2022-12-03T01:35:53.072Z,31.20
2022-12-03T01:38:21.835Z,29.90
2022-12-03T01:40:51.105Z,30.80
2022-12-03T01:43:19.771Z,31.50
2022-12-03T01:45:48.871Z,31.70
2022-12-03T01:48:18.048Z,20.40
2022-12-03T01:50:47.658Z,30.70
2022-12-03T01:53:19.541Z,27.80
2022-12-03T01:55:48.976Z,29.40
2022-12-03T01:58:24.864Z,22.60
2022-12-03T02:00:53.756Z,30.80
2022-12-03T02:03:25.244Z,31.80
2022-12-03T02:05:54.202Z,31.20
2022-12-03T02:08:35.445Z,33.20
2022-12-03T02:11:26.291Z,32.70
2022-12-03T02:14:02.178Z,31.30
2022-12-03T02:16:31.543Z,30.20
2022-12-03T02:19:01.174Z,29.70
2022-12-03T02:21:54.016Z,29.50
2022-12-03T02:24:44.438Z,29.20
2022-12-03T02:29:42.647Z,29.30
2022-12-03T02:32:11.586Z,29.10
2022-12-03T02:34:45.958Z,29.80
2022-12-03T02:37:19.987Z,31.40
2022-12-03T02:39:53.628Z,31.80
2022-12-03T02:42:38.311Z,32.20
2022-12-03T02:45:10.660Z,33.60
2022-12-03T02:47:44.805Z,29.90
2022-12-03T02:50:18.279Z,31.20
2022-12-03T02:52:48.418Z,30.20
2022-12-03T02:55:18.878Z,29.00
2022-12-03T02:57:50.524Z,27.10
2022-12-03T03:00:19.793Z,29.60
2022-12-03T03:02:51.188Z,29.30
2022-12-03T03:05:23.938Z,29.60
2022-12-03T03:07:53.144Z,31.30
2022-12-03T03:10:23.748Z,30.90
2022-12-03T03:12:55.589Z,29.40
2022-12-03T03:15:25.558Z,30.70
2022-12-03T03:17:54.172Z,31.50
2022-12-03T03:20:23.054Z,31.30
2022-12-03T03:22:52.066Z,29.60
2022-12-03T03:25:25.391Z,30.40
2022-12-03T03:27:54.482Z,32.30
2022-12-03T03:30:23.302Z,31.20
2022-12-03T03:32:51.987Z,32.10
2022-12-03T03:35:21.146Z,32.00
2022-12-03T03:37:49.897Z,21.30
2022-12-03T03:40:19.042Z,33.40
2022-12-03T03:42:48.887Z,32.80
2022-12-03T03:45:22.662Z,31.90
2022-12-03T03:47:55.559Z,33.80
2022-12-03T03:50:28.713Z,33.80
2022-12-03T03:53:00.346Z,31.60
2022-12-03T03:55:30.424Z,32.30
2022-12-03T03:57:59.400Z,31.00
2022-12-03T04:00:28.443Z,32.60
2022-12-03T04:02:57.213Z,34.30
2022-12-03T04:05:28.005Z,30.20
2022-12-03T04:10:44.288Z,31.70
2022-12-03T04:13:14.463Z,32.60
2022-12-03T04:15:43.122Z,32.80
2022-12-03T04:18:30.508Z,32.60
2022-12-03T04:21:19.240Z,33.50
2022-12-03T04:23:47.927Z,31.70
2022-12-03T04:26:36.049Z,33.30
2022-12-03T04:29:04.960Z,32.40
2022-12-03T04:31:52.611Z,33.40
2022-12-03T04:34:40.029Z,35.10
2022-12-03T04:37:09.284Z,36.00
2022-12-03T04:39:37.943Z,35.00
2022-12-03T04:42:07.511Z,34.00
2022-12-03T04:44:36.726Z,36.00
2022-12-03T04:47:08.987Z,34.10
2022-12-03T04:49:41.205Z,33.80
2022-12-03T04:52:12.294Z,33.80
2022-12-03T04:54:42.125Z,33.20
2022-12-03T04:57:12.234Z,33.20
2022-12-03T04:59:41.433Z,34.00
2022-12-03T05:02:10.622Z,33.30
2022-12-03T05:04:39.661Z,27.90
2022-12-03T05:07:08.350Z,33.80
2022-12-03T05:09:37.446Z,36.40
2022-12-03T05:12:06.210Z,35.50
2022-12-03T05:14:35.605Z,38.60
2022-12-03T05:17:04.690Z,34.30
2022-12-03T05:19:52.192Z,33.60
2022-12-03T05:22:21.047Z,32.60
2022-12-03T05:24:49.644Z,35.80
2022-12-03T05:27:23.451Z,32.20
2022-12-03T05:29:54.446Z,33.40
2022-12-03T05:32:23.158Z,34.80
2022-12-03T05:34:52.023Z,37.40
2022-12-03T05:37:21.824Z,32.40
2022-12-03T05:39:50.556Z,36.70
2022-12-03T05:42:37.845Z,36.40
2022-12-03T05:45:07.665Z,33.60
2022-12-03T05:47:36.262Z,34.00
2022-12-03T05:50:05.525Z,36.50
2022-12-03T05:52:34.738Z,36.70
2022-12-03T05:55:03.686Z,37.60
2022-12-03T05:57:32.267Z,36.30
2022-12-03T06:00:01.424Z,36.30
2022-12-03T06:02:30.339Z,37.10
2022-12-03T06:04:59.370Z,28.90
2022-12-03T06:07:28.544Z,37.20
2022-12-03T06:09:57.141Z,38.20
2022-12-03T06:12:25.700Z,38.60
2022-12-03T06:14:55.662Z,36.80
2022-12-03T06:17:24.477Z,35.90
2022-12-03T06:19:53.067Z,40.80
2022-12-03T06:22:22.134Z,37.70
2022-12-03T06:24:50.915Z,37.60
2022-12-03T06:27:19.693Z,40.20
2022-12-03T06:29:49.051Z,35.40
2022-12-03T06:32:17.696Z,40.50
2022-12-03T06:34:47.491Z,36.40
2022-12-03T06:37:16.853Z,39.80
2022-12-03T06:39:45.593Z,36.40
2022-12-03T06:42:14.136Z,38.30
2022-12-03T06:44:43.246Z,39.00
2022-12-03T06:47:11.842Z,40.60
2022-12-03T06:49:40.487Z,41.20
2022-12-03T06:52:09.600Z,39.90
2022-12-03T06:54:38.179Z,24.40
2022-12-03T06:57:06.893Z,38.40
2022-12-03T06:59:37.982Z,42.90
2022-12-03T07:02:07.008Z,41.90
2022-12-03T07:04:35.651Z,47.20
2022-12-03T07:07:05.025Z,42.30
2022-12-03T07:09:33.580Z,46.60
2022-12-03T07:12:02.199Z,43.40
2022-12-03T07:14:31.390Z,40.30
2022-12-03T07:17:00.028Z,31.30
2022-12-03T07:19:32.522Z,37.20
2022-12-03T07:22:03.699Z,40.20
2022-12-03T07:30:18.132Z,36.40
2022-12-03T07:48:29.698Z,42.30
2022-12-03T07:51:01.203Z,34.10
2022-12-03T07:53:30.472Z,40.70
2022-12-03T07:55:59.071Z,33.70
2022-12-03T07:58:28.291Z,48.80
2022-12-03T08:00:57.855Z,50.80
2022-12-03T08:03:26.535Z,49.60
2022-12-03T08:05:55.594Z,49.30
2022-12-03T08:08:24.815Z,48.90
2022-12-03T08:10:53.647Z,48.10
2022-12-03T08:13:22.456Z,45.90
2022-12-03T08:15:52.359Z,42.10
2022-12-03T08:18:22.412Z,43.10
2022-12-03T08:20:52.304Z,43.80
2022-12-03T08:23:23.322Z,31.40
2022-12-03T08:25:53.352Z,42.10
2022-12-03T08:28:24.652Z,41.20
2022-12-03T08:31:19.928Z,44.80
2022-12-03T08:33:51.369Z,49.10
2022-12-03T08:36:27.167Z,43.50
2022-12-03T08:39:15.159Z,42.90
2022-12-03T08:42:05.945Z,47.20
2022-12-03T08:44:41.989Z,49.30
2022-12-03T08:47:16.869Z,52.70
2022-12-03T08:50:13.115Z,48.50
2022-12-03T08:52:42.461Z,44.70
2022-12-03T08:55:39.266Z,49.30
2022-12-03T08:58:39.855Z,47.40
2022-12-03T09:01:11.723Z,43.50
2022-12-03T09:03:49.565Z,51.90
2022-12-03T09:06:18.896Z,46.70
2022-12-03T09:08:48.098Z,36.30
2022-12-03T09:11:16.767Z,48.00
2022-12-03T09:13:45.409Z,47.10
2022-12-03T09:16:14.423Z,45.90
2022-12-03T09:18:46.493Z,47.70
2022-12-03T09:21:16.486Z,48.40
2022-12-03T09:26:14.243Z,48.70
2022-12-03T09:28:43.174Z,44.70
2022-12-03T09:31:12.036Z,49.90
2022-12-03T09:33:40.728Z,54.30
2022-12-03T09:36:09.655Z,48.70
2022-12-03T09:38:41.945Z,45.70
2022-12-03T09:41:15.194Z,45.80
2022-12-03T09:44:03.306Z,47.50
2022-12-03T09:46:35.958Z,46.80
2022-12-03T09:49:12.314Z,45.80
2022-12-03T09:51:45.948Z,38.70
2022-12-03T09:54:24.790Z,49.80
2022-12-03T09:56:55.384Z,57.10
2022-12-03T09:59:28.218Z,53.30
2022-12-03T10:01:58.202Z,62.90
2022-12-03T10:04:29.158Z,49.10
2022-12-03T10:06:59.339Z,47.60
2022-12-03T10:09:29.691Z,46.00
2022-12-03T10:12:00.365Z,46.10
2022-12-03T10:14:30.038Z,46.10
2022-12-03T10:16:59.003Z,50.10
2022-12-03T10:19:33.243Z,50.30
2022-12-03T10:22:02.110Z,51.00
2022-12-03T10:24:35.995Z,54.90
2022-12-03T10:27:29.758Z,50.10
2022-12-03T10:30:01.668Z,49.60
2022-12-03T10:32:45.999Z,52.60
2022-12-03T10:35:21.551Z,48.80
2022-12-03T10:38:01.022Z,52.20
2022-12-03T10:40:31.607Z,45.80
2022-12-03T10:43:18.981Z,47.20
2022-12-03T10:45:50.076Z,57.90
2022-12-03T10:48:20.442Z,68.00
2022-12-03T10:53:28.787Z,60.10
2022-12-03T10:56:00.174Z,54.10
2022-12-03T10:58:31.617Z,51.10
2022-12-03T11:01:03.995Z,49.00
2022-12-03T11:03:37.026Z,47.50
2022-12-03T11:06:06.125Z,50.50
2022-12-03T11:08:37.739Z,66.50
2022-12-03T11:11:19.211Z,72.60
2022-12-03T11:13:54.857Z,56.50
2022-12-03T11:16:42.237Z,66.00
2022-12-03T11:19:38.134Z,57.40
2022-12-03T11:22:07.020Z,54.60
2022-12-03T11:24:41.618Z,57.50
2022-12-03T11:27:10.773Z,53.30
2022-12-03T11:30:00.392Z,60.00
2022-12-03T11:32:38.828Z,62.00
2022-12-03T11:35:29.101Z,61.30
2022-12-03T11:38:36.502Z,56.40
2022-12-03T11:41:11.744Z,60.30
2022-12-03T11:43:52.872Z,55.40
2022-12-03T11:46:25.492Z,58.10
2022-12-03T11:48:56.866Z,55.70
2022-12-03T11:51:28.829Z,52.80
2022-12-03T11:54:01.025Z,57.80
2022-12-03T11:56:33.453Z,60.00
2022-12-03T11:59:05.084Z,58.60
2022-12-03T12:01:44.186Z,54.80
2022-12-03T12:04:35.911Z,55.70
2022-12-03T12:07:04.834Z,54.20
2022-12-03T12:10:06.151Z,59.60
2022-12-03T12:12:54.289Z,52.90
2022-12-03T12:15:34.015Z,51.50
2022-12-03T12:18:41.879Z,59.20
2022-12-03T12:21:48.029Z,50.70
2022-12-03T12:24:51.805Z,53.20
2022-12-03T12:27:23.556Z,47.80
2022-12-03T12:30:03.469Z,50.00
2022-12-03T12:33:10.436Z,50.10
2022-12-03T12:35:46.766Z,82.70
2022-12-03T12:38:35.903Z,47.60
2022-12-03T12:41:08.401Z,52.80
2022-12-03T12:43:39.143Z,60.40
2022-12-03T12:49:15.273Z,55.50
2022-12-03T12:51:46.096Z,59.90
2022-12-03T12:54:17.000Z,60.60
2022-12-03T12:56:50.415Z,60.40
2022-12-03T12:59:24.819Z,57.00
2022-12-03T13:01:54.042Z,63.00
2022-12-03T13:04:24.235Z,57.70
2022-12-03T13:06:54.366Z,56.90
2022-12-03T13:09:28.075Z,57.80
2022-12-03T13:12:00.395Z,59.30
2022-12-03T13:14:36.956Z,64.30
2022-12-03T13:17:19.145Z,68.80
2022-12-03T13:19:53.912Z,61.00
2022-12-03T13:22:28.227Z,66.60
2022-12-03T13:24:59.034Z,67.30
2022-12-03T13:27:30.028Z,60.70
2022-12-03T13:30:08.741Z,62.00
2022-12-03T13:32:38.102Z,65.40
2022-12-03T13:35:17.773Z,61.80
2022-12-03T13:37:46.740Z,68.60
2022-12-03T13:40:26.077Z,67.40
2022-12-03T13:42:55.570Z,62.50
2022-12-03T13:45:31.296Z,67.90
2022-12-03T13:48:03.667Z,62.80
2022-12-03T13:50:46.611Z,58.10
2022-12-03T13:53:40.477Z,60.70
2022-12-03T13:56:30.576Z,59.90
2022-12-03T14:01:30.960Z,62.30
2022-12-03T14:04:00.944Z,70.80
2022-12-03T14:06:29.439Z,72.70
2022-12-03T14:08:58.364Z,67.40
2022-12-03T14:11:48.691Z,82.60
2022-12-03T14:14:19.499Z,86.80
2022-12-03T14:16:48.688Z,77.40
2022-12-03T14:19:17.265Z,86.60
2022-12-03T14:21:47.024Z,78.30
2022-12-03T14:24:16.131Z,72.20
2022-12-03T14:26:44.670Z,66.20
2022-12-03T14:29:13.530Z,80.50
2022-12-03T14:31:42.331Z,71.00
2022-12-03T14:34:10.985Z,74.00
2022-12-03T14:36:40.770Z,69.80
2022-12-03T14:39:09.556Z,74.60
2022-12-03T14:41:56.905Z,74.70
2022-12-03T14:44:26.685Z,66.60
2022-12-03T14:46:57.340Z,66.60
2022-12-03T14:49:27.018Z,68.40
2022-12-03T14:51:55.672Z,69.40
2022-12-03T14:54:24.288Z,60.20
2022-12-03T14:56:53.727Z,62.80
2022-12-03T14:59:27.386Z,67.10
2022-12-03T15:01:57.912Z,73.00
2022-12-03T15:04:26.921Z,79.10
2022-12-03T15:06:55.502Z,83.60
2022-12-03T15:09:24.643Z,74.90
2022-12-03T15:11:53.303Z,71.40
2022-12-03T15:14:23.835Z,76.80
2022-12-03T15:16:53.930Z,77.50
2022-12-03T15:19:22.764Z,76.20
2022-12-03T15:21:51.299Z,74.40
2022-12-03T15:24:20.561Z,71.50
2022-12-03T15:26:49.984Z,63.90
2022-12-03T15:29:19.326Z,47.50
2022-12-03T15:31:48.813Z,77.50
2022-12-03T15:34:22.574Z,80.90
2022-12-03T15:36:52.398Z,73.30
2022-12-03T15:39:21.028Z,59.90
2022-12-03T15:41:49.835Z,74.00
2022-12-03T15:44:19.170Z,79.70
2022-12-03T15:46:48.063Z,85.90
2022-12-03T15:49:16.660Z,91.50
2022-12-03T15:51:45.842Z,90.10
2022-12-03T15:54:14.907Z,89.50
2022-12-03T15:56:43.413Z,80.90
2022-12-03T15:59:13.691Z,86.20
2022-12-03T16:04:10.965Z,78.00
2022-12-03T16:06:40.278Z,82.90
2022-12-03T16:09:09.279Z,80.00
2022-12-03T16:11:37.879Z,78.60
2022-12-03T16:14:07.298Z,83.90
2022-12-03T16:16:36.502Z,91.00
2022-12-03T16:19:05.185Z,84.60
2022-12-03T16:21:35.640Z,78.20
2022-12-03T16:24:05.236Z,82.50
2022-12-03T16:26:33.883Z,73.20
2022-12-03T16:29:03.927Z,73.90
2022-12-03T16:31:33.846Z,73.20
2022-12-03T16:34:02.650Z,65.20
2022-12-03T16:36:32.253Z,67.20
2022-12-03T16:39:01.507Z,66.70
2022-12-03T16:41:30.288Z,67.70
2022-12-03T16:44:02.508Z,66.50
2022-12-03T16:46:31.468Z,66.90
2022-12-03T16:49:00.638Z,69.20
2022-12-03T16:51:30.749Z,67.00
2022-12-03T16:53:59.774Z,70.20
2022-12-03T16:56:28.507Z,74.30
2022-12-03T16:58:57.486Z,72.30
2022-12-03T17:01:26.187Z,73.50
2022-12-03T17:03:55.533Z,85.50
2022-12-03T17:06:24.657Z,74.30
2022-12-03T17:08:53.290Z,67.50
2022-12-03T17:11:22.042Z,78.00
2022-12-03T17:13:51.467Z,70.90
2022-12-03T17:16:20.210Z,77.70
2022-12-03T17:18:49.875Z,82.40
2022-12-03T17:21:19.645Z,86.20
2022-12-03T17:23:51.213Z,81.30
2022-12-03T17:26:20.578Z,77.80
2022-12-03T17:28:49.099Z,56.30
2022-12-03T17:31:17.713Z,69.50
2022-12-03T17:33:47.131Z,65.90
2022-12-03T17:36:15.718Z,71.30
2022-12-03T17:38:44.329Z,70.00
2022-12-03T17:41:13.931Z,75.60
2022-12-03T17:43:42.603Z,74.70
2022-12-03T17:46:11.905Z,79.00
2022-12-03T17:48:43.214Z,82.20
2022-12-03T17:51:12.053Z,95.70
2022-12-03T17:53:40.718Z,92.30
2022-12-03T17:56:10.177Z,92.70
2022-12-03T17:58:38.920Z,91.50
2022-12-03T18:01:10.928Z,74.60
2022-12-03T18:03:51.404Z,75.70
2022-12-03T18:06:41.886Z,72.00
2022-12-03T18:09:37.054Z,69.00
2022-12-03T18:12:36.289Z,76.80
2022-12-03T18:15:27.880Z,75.60
2022-12-03T18:18:30.592Z,83.50
2022-12-03T18:21:21.766Z,83.20
2022-12-03T18:24:26.009Z,81.70
2022-12-03T18:27:12.799Z,76.50
2022-12-03T18:30:05.825Z,78.30
2022-12-03T18:32:53.225Z,78.90
2022-12-03T18:35:53.984Z,75.80
2022-12-03T18:38:51.176Z,83.90
2022-12-03T18:41:46.858Z,84.40
2022-12-03T18:44:15.884Z,78.50
2022-12-03T18:46:53.518Z,71.10
2022-12-03T18:49:23.666Z,98.00
2022-12-03T18:51:58.872Z,87.90
2022-12-03T18:54:28.637Z,92.10
2022-12-03T18:56:57.592Z,83.90
2022-12-03T18:59:26.184Z,81.90
2022-12-03T19:01:55.104Z,79.30
2022-12-03T19:04:24.736Z,78.90
2022-12-03T19:06:53.358Z,63.50
2022-12-03T19:09:22.375Z,80.80
2022-12-03T19:11:51.524Z,82.80
2022-12-03T19:14:20.068Z,84.50
2022-12-03T19:16:50.592Z,81.10
2022-12-03T19:19:19.555Z,81.20
2022-12-03T19:21:48.145Z,81.00
2022-12-03T19:24:26.553Z,82.50
2022-12-03T19:26:55.797Z,83.10
2022-12-03T19:29:25.284Z,76.90
2022-12-03T19:31:53.962Z,56.40
2022-12-03T19:34:22.778Z,76.80
2022-12-03T19:36:51.868Z,76.90
2022-12-03T19:39:20.653Z,74.50
2022-12-03T19:41:49.508Z,75.50
2022-12-03T19:44:19.734Z,75.60
2022-12-03T19:46:51.526Z,70.60
2022-12-03T19:49:21.962Z,71.00
2022-12-03T19:51:50.877Z,70.20
2022-12-03T19:54:19.841Z,74.10
2022-12-03T19:56:50.163Z,74.80
2022-12-03T19:59:19.140Z,72.30
2022-12-03T20:01:48.681Z,69.10
2022-12-03T20:04:18.380Z,73.10
2022-12-03T20:06:47.867Z,74.80
2022-12-03T20:09:18.221Z,55.80
2022-12-03T20:11:50.687Z,77.40
2022-12-03T20:14:20.201Z,83.00
2022-12-03T20:16:49.668Z,83.70
2022-12-03T20:19:18.529Z,71.90
2022-12-03T20:21:47.564Z,72.40
2022-12-03T20:24:18.317Z,71.80
2022-12-03T20:26:47.515Z,70.50
2022-12-03T20:29:16.145Z,72.40
2022-12-03T20:31:44.928Z,70.30
2022-12-03T20:34:14.141Z,78.80
2022-12-03T20:36:44.539Z,79.70
2022-12-03T20:39:13.421Z,74.00
2022-12-03T20:41:42.152Z,78.90
2022-12-03T20:44:10.788Z,69.70
2022-12-03T20:46:39.752Z,74.70
2022-12-03T20:49:08.785Z,71.80
2022-12-03T20:51:37.342Z,50.40
2022-12-03T20:54:06.108Z,73.00
2022-12-03T20:56:39.823Z,72.90
2022-12-03T20:59:12.854Z,69.80
2022-12-03T21:01:43.035Z,70.30
2022-12-03T21:04:18.413Z,73.70
2022-12-03T21:06:47.245Z,72.30
2022-12-03T21:09:16.561Z,73.90
2022-12-03T21:11:45.437Z,70.10
2022-12-03T21:14:14.364Z,71.40
2022-12-03T21:17:07.270Z,72.70
2022-12-03T21:19:36.056Z,67.50
2022-12-03T21:22:06.128Z,67.50
2022-12-03T21:24:34.957Z,70.00
2022-12-03T21:27:04.488Z,69.10
2022-12-03T21:29:34.686Z,68.60
2022-12-03T21:32:03.261Z,72.20
2022-12-03T21:34:36.116Z,76.60
2022-12-03T21:37:05.930Z,76.80
2022-12-03T21:39:34.688Z,76.10
2022-12-03T21:42:18.714Z,74.10
2022-12-03T21:44:53.135Z,74.30
2022-12-03T21:47:22.347Z,69.50
2022-12-03T21:49:50.988Z,68.00
2022-12-03T21:52:20.283Z,68.10
2022-12-03T21:54:51.984Z,69.30
2022-12-03T21:57:21.855Z,71.90
2022-12-03T21:59:50.453Z,71.20
2022-12-03T22:02:19.154Z,73.00
2022-12-03T22:04:52.028Z,73.50
2022-12-03T22:07:20.576Z,70.80
2022-12-03T22:09:49.329Z,71.00
2022-12-03T22:12:20.333Z,69.60
2022-12-03T22:14:48.881Z,68.60
2022-12-03T22:17:17.853Z,69.10
2022-12-03T22:19:46.567Z,69.00
2022-12-03T22:22:15.196Z,70.70
2022-12-03T22:24:46.240Z,74.90
2022-12-03T22:27:15.632Z,80.30
2022-12-03T22:29:44.224Z,76.80
2022-12-03T22:32:13.170Z,72.00
2022-12-03T22:34:43.132Z,71.00
2022-12-03T22:39:40.208Z,72.20
2022-12-03T22:42:09.090Z,69.40
2022-12-03T22:44:37.711Z,72.10
2022-12-03T22:47:06.827Z,55.30
2022-12-03T22:49:35.591Z,73.80
2022-12-03T22:52:04.241Z,78.30
2022-12-03T22:54:33.268Z,75.60
2022-12-03T22:57:02.316Z,78.60
2022-12-03T22:59:31.062Z,72.90
2022-12-03T23:02:00.259Z,57.30
2022-12-03T23:04:29.254Z,73.60
2022-12-03T23:06:57.802Z,72.30
2022-12-03T23:09:27.057Z,68.10
2022-12-03T23:11:56.202Z,69.30
2022-12-03T23:14:24.739Z,68.70
2022-12-03T23:16:54.036Z,71.60
2022-12-03T23:19:23.367Z,74.90
2022-12-03T23:21:51.875Z,75.70
2022-12-03T23:24:21.037Z,77.30
2022-12-03T23:26:50.094Z,71.50
2022-12-03T23:29:18.682Z,71.60
2022-12-03T23:31:48.239Z,70.50
2022-12-03T23:34:17.275Z,69.50
2022-12-03T23:36:45.918Z,70.10
2022-12-03T23:39:15.969Z,70.30
2022-12-03T23:41:45.053Z,68.40
2022-12-03T23:44:13.544Z,72.00
2022-12-03T23:46:43.018Z,75.30
2022-12-03T23:49:12.473Z,75.50
2022-12-03T23:51:41.018Z,74.40
2022-12-03T23:54:09.906Z,73.00
2022-12-03T23:56:40.303Z,72.20
2022-12-03T23:59:09.937Z,69.50
